createdAt,value
2022-08-20T00:01:16.653Z,96837.47
2022-08-20T00:03:50.304Z,96837.66
2022-08-20T00:06:24.165Z,96838.28
2022-08-20T00:08:52.150Z,96836.22
2022-08-20T00:11:24.306Z,96840.94
2022-08-20T00:13:57.486Z,96842.38
2022-08-20T00:16:27.620Z,96837.03
2022-08-20T00:18:54.981Z,96836.22
2022-08-20T00:21:23.348Z,96840.72
2022-08-20T00:23:55.858Z,96832.03
2022-08-20T00:26:24.227Z,96827.97
2022-08-20T00:28:52.431Z,96823.88
2022-08-20T00:31:22.557Z,96824.25
2022-08-20T00:33:50.457Z,96827.91
2022-08-20T00:36:18.350Z,96824.81
2022-08-20T00:38:47.309Z,96813.75
2022-08-20T00:41:21.823Z,96816.84
2022-08-20T00:44:05.870Z,96814.38
2022-08-20T00:46:34.298Z,96812.78
2022-08-20T00:49:04.102Z,96816.91
2022-08-20T00:51:45.140Z,96806.81
2022-08-20T00:54:24.269Z,96808.47
2022-08-20T00:56:57.526Z,96807.84
2022-08-20T00:59:30.564Z,96805.97
2022-08-20T01:01:58.914Z,96807.63
2022-08-20T01:04:28.701Z,96807.00
2022-08-20T01:06:56.063Z,96801.28
2022-08-20T01:09:49.629Z,96799.63
2022-08-20T01:12:12.095Z,96797.38
2022-08-20T01:14:44.336Z,96800.81
2022-08-20T01:17:17.955Z,96792.84
2022-08-20T01:19:53.523Z,96790.09
2022-08-20T01:22:49.765Z,96800.34
2022-08-20T01:25:53.835Z,96788.66
2022-08-20T01:28:25.567Z,96791.94
2022-08-20T01:31:12.633Z,96789.19
2022-08-20T01:33:40.806Z,96780.94
2022-08-20T01:36:10.883Z,96778.63
2022-08-20T01:38:40.174Z,96772.72
2022-08-20T01:41:35.493Z,96776.38
2022-08-20T01:44:03.185Z,96777.44
2022-08-20T01:46:36.651Z,96765.16
2022-08-20T01:49:15.004Z,96765.81
2022-08-20T01:51:45.959Z,96767.66
2022-08-20T01:54:16.341Z,96773.97
2022-08-20T01:57:06.816Z,96768.66
2022-08-20T01:59:34.072Z,96766.59
2022-08-20T02:02:02.867Z,96764.09
2022-08-20T02:04:31.551Z,96771.06
2022-08-20T02:07:01.634Z,96768.22
2022-08-20T02:09:35.026Z,96764.09
2022-08-20T02:12:04.247Z,96763.28
2022-08-20T02:14:31.797Z,96766.97
2022-08-20T02:17:02.523Z,96769.84
2022-08-20T02:19:43.040Z,96758.78
2022-08-20T02:22:19.728Z,96762.47
2022-08-20T02:24:46.952Z,96758.34
2022-08-20T02:27:15.047Z,96757.13
2022-08-20T02:29:42.691Z,96753.22
2022-08-20T02:32:24.927Z,96748.88
2022-08-20T02:34:57.424Z,96743.97
2022-08-20T02:37:24.765Z,96747.25
2022-08-20T02:39:51.996Z,96748.03
2022-08-20T02:42:19.254Z,96744.34
2022-08-20T02:44:46.788Z,96742.69
2022-08-20T02:47:14.309Z,96741.84
2022-08-20T02:49:41.455Z,96741.00
2022-08-20T02:52:08.663Z,96741.44
2022-08-20T02:54:36.375Z,96738.97
2022-08-20T02:57:04.565Z,96738.97
2022-08-20T02:59:31.838Z,96744.69
2022-08-20T03:02:00.900Z,96747.19
2022-08-20T03:04:31.753Z,96744.09
2022-08-20T03:06:59.789Z,96729.50
2022-08-20T03:09:29.760Z,96742.16
2022-08-20T03:11:56.798Z,96743.03
2022-08-20T03:14:24.291Z,96739.28
2022-08-20T03:16:52.374Z,96743.75
2022-08-20T03:19:19.599Z,96740.53
2022-08-20T03:21:47.135Z,96742.41
2022-08-20T03:24:14.275Z,96742.56
2022-08-20T03:26:41.763Z,96745.59
2022-08-20T03:29:09.311Z,96747.41
2022-08-20T03:31:54.827Z,96746.53
2022-08-20T03:34:22.039Z,96739.56
2022-08-20T03:36:49.327Z,96740.75
2022-08-20T03:39:16.650Z,96748.34
2022-08-20T03:41:43.846Z,96736.22
2022-08-20T03:44:11.051Z,96749.50
2022-08-20T03:46:39.218Z,96745.97
2022-08-20T03:49:06.576Z,96748.88
2022-08-20T03:51:56.060Z,96750.91
2022-08-20T03:54:21.455Z,96754.06
2022-08-20T03:56:48.638Z,96744.41
2022-08-20T03:59:15.986Z,96744.03
2022-08-20T04:01:46.034Z,96748.59
2022-08-20T04:04:15.624Z,96752.72
2022-08-20T04:06:43.287Z,96756.50
2022-08-20T04:09:12.135Z,96755.25
2022-08-20T04:11:41.286Z,96745.84
2022-08-20T04:14:10.387Z,96753.16
2022-08-20T04:16:38.706Z,96743.75
2022-08-20T04:19:07.787Z,96746.25
2022-08-20T04:21:36.522Z,96749.97
2022-08-20T04:24:05.401Z,96752.06
2022-08-20T04:26:35.746Z,96750.50
2022-08-20T04:29:03.359Z,96751.94
2022-08-20T04:31:33.606Z,96744.81
2022-08-20T04:34:08.214Z,96751.59
2022-08-20T04:36:35.773Z,96752.25
2022-08-20T04:39:03.025Z,96746.91
2022-08-20T04:41:30.184Z,96750.41
2022-08-20T04:43:58.443Z,96749.44
2022-08-20T04:46:29.083Z,96754.81
2022-08-20T04:48:57.340Z,96753.84
2022-08-20T04:51:26.899Z,96746.91
2022-08-20T04:53:55.132Z,96747.97
2022-08-20T04:56:24.473Z,96739.75
2022-08-20T04:58:52.685Z,96735.88
2022-08-20T05:01:20.418Z,96730.72
2022-08-20T05:03:49.439Z,96733.56
2022-08-20T05:06:18.400Z,96733.94
2022-08-20T05:08:45.675Z,96738.16
2022-08-20T05:11:34.365Z,96730.41
2022-08-20T05:14:02.750Z,96728.97
2022-08-20T05:16:30.097Z,96727.47
2022-08-20T05:18:57.471Z,96727.78
2022-08-20T05:21:24.602Z,96726.78
2022-08-20T05:23:51.592Z,96732.97
2022-08-20T05:26:20.505Z,96727.75
2022-08-20T05:28:57.079Z,96728.69
2022-08-20T05:31:30.916Z,96734.69
2022-08-20T05:34:19.152Z,96723.28
2022-08-20T05:36:49.908Z,96718.06
2022-08-20T05:39:19.386Z,96717.19
2022-08-20T05:41:46.838Z,96720.41
2022-08-20T05:44:16.729Z,96709.31
2022-08-20T05:46:45.966Z,96716.25
2022-08-20T05:49:16.582Z,96712.53
2022-08-20T05:51:44.369Z,96707.28
2022-08-20T05:54:11.707Z,96713.63
2022-08-20T05:56:39.681Z,96710.69
2022-08-20T05:59:09.271Z,96715.84
2022-08-20T06:01:39.049Z,96710.75
2022-08-20T06:04:28.410Z,96705.56
2022-08-20T06:07:02.833Z,96690.63
2022-08-20T06:09:32.167Z,96692.13
2022-08-20T06:12:06.427Z,96689.81
2022-08-20T06:14:34.116Z,96689.63
2022-08-20T06:17:15.357Z,96687.78
2022-08-20T06:19:44.595Z,96683.72
2022-08-20T06:22:18.183Z,96682.63
2022-08-20T06:24:51.636Z,96684.50
2022-08-20T06:27:19.159Z,96678.50
2022-08-20T06:29:46.661Z,96675.16
2022-08-20T06:32:14.321Z,96683.50
2022-08-20T06:34:49.620Z,96679.38
2022-08-20T06:37:31.166Z,96677.59
2022-08-20T06:40:08.407Z,96678.19
2022-08-20T06:42:35.523Z,96682.34
2022-08-20T06:45:05.472Z,96686.75
2022-08-20T06:47:33.276Z,96676.06
2022-08-20T06:50:00.418Z,96678.13
2022-08-20T06:52:47.115Z,96680.25
2022-08-20T06:55:16.702Z,96674.06
2022-08-20T06:57:44.191Z,96671.69
2022-08-20T07:00:16.348Z,96679.00
2022-08-20T07:02:43.464Z,96670.97
2022-08-20T07:05:10.993Z,96664.19
2022-08-20T07:07:38.451Z,96660.72
2022-08-20T07:10:11.455Z,96662.56
2022-08-20T07:12:38.871Z,96659.69
2022-08-20T07:15:10.626Z,96655.06
2022-08-20T07:17:39.318Z,96653.13
2022-08-20T07:20:14.168Z,96657.72
2022-08-20T07:22:42.531Z,96658.56
2022-08-20T07:25:13.779Z,96648.09
2022-08-20T07:27:41.856Z,96648.50
2022-08-20T07:30:31.497Z,96643.22
2022-08-20T07:32:58.800Z,96636.78
2022-08-20T07:35:27.678Z,96626.56
2022-08-20T07:37:55.261Z,96638.88
2022-08-20T07:40:28.251Z,96622.69
2022-08-20T07:43:03.483Z,96622.50
2022-08-20T07:45:31.780Z,96619.28
2022-08-20T07:48:12.080Z,96619.16
2022-08-20T07:50:39.870Z,96623.22
2022-08-20T07:53:07.048Z,96620.91
2022-08-20T07:55:34.523Z,96614.13
2022-08-20T07:58:12.340Z,96618.25
2022-08-20T08:00:40.533Z,96622.09
2022-08-20T08:03:09.475Z,96628.41
2022-08-20T08:05:39.097Z,96622.88
2022-08-20T08:08:12.882Z,96620.25
2022-08-20T08:10:42.472Z,96620.19
2022-08-20T08:13:13.141Z,96629.00
2022-08-20T08:15:45.235Z,96618.38
2022-08-20T08:18:18.274Z,96632.31
2022-08-20T08:20:46.973Z,96623.91
2022-08-20T08:23:24.523Z,96618.88
2022-08-20T08:25:59.571Z,96622.81
2022-08-20T08:28:28.702Z,96619.91
2022-08-20T08:30:55.838Z,96620.47
2022-08-20T08:33:28.857Z,96611.81
2022-08-20T08:35:57.798Z,96617.03
2022-08-20T08:38:26.028Z,96617.63
2022-08-20T08:40:59.725Z,96619.81
2022-08-20T08:43:31.660Z,96609.53
2022-08-20T08:46:06.386Z,96609.00
2022-08-20T08:48:48.077Z,96613.13
2022-08-20T08:51:27.170Z,96605.66
2022-08-20T08:53:57.080Z,96598.03
2022-08-20T08:56:28.422Z,96586.66
2022-08-20T08:59:10.540Z,96592.06
2022-08-20T09:01:53.780Z,96590.97
2022-08-20T09:04:30.617Z,96598.28
2022-08-20T09:06:59.101Z,96591.38
2022-08-20T09:09:31.632Z,96591.47
2022-08-20T09:12:06.394Z,96593.00
2022-08-20T09:14:33.952Z,96582.47
2022-08-20T09:17:01.310Z,96588.13
2022-08-20T09:19:28.857Z,96589.81
2022-08-20T09:21:56.181Z,96589.53
2022-08-20T09:24:23.625Z,96588.75
2022-08-20T09:26:50.966Z,96591.16
2022-08-20T09:29:18.506Z,96585.28
2022-08-20T09:31:46.332Z,96574.38
2022-08-20T09:34:13.971Z,96586.91
2022-08-20T09:36:41.038Z,96580.84
2022-08-20T09:39:07.974Z,96581.16
2022-08-20T09:41:35.165Z,96586.13
2022-08-20T09:44:02.790Z,96575.63
2022-08-20T09:46:29.862Z,96572.25
2022-08-20T09:48:56.912Z,96580.44
2022-08-20T09:51:24.106Z,96576.91
2022-08-20T09:53:51.520Z,96567.19
2022-08-20T09:56:18.974Z,96574.72
2022-08-20T09:58:53.152Z,96573.03
2022-08-20T10:01:22.454Z,96569.44
2022-08-20T10:03:50.601Z,96572.69
2022-08-20T10:06:20.579Z,96565.03
2022-08-20T10:08:49.100Z,96554.88
2022-08-20T10:11:17.993Z,96563.19
2022-08-20T10:13:46.399Z,96561.31
2022-08-20T10:16:13.905Z,96564.41
2022-08-20T10:18:41.002Z,96544.53
2022-08-20T10:21:12.379Z,96534.59
2022-08-20T10:23:40.070Z,96533.16
2022-08-20T10:26:11.937Z,96548.22
2022-08-20T10:28:39.879Z,96538.06
2022-08-20T10:31:09.538Z,96539.66
2022-08-20T10:33:37.068Z,96542.94
2022-08-20T10:36:08.066Z,96549.13
2022-08-20T10:38:35.273Z,96545.56
2022-08-20T10:41:02.310Z,96542.09
2022-08-20T10:43:29.467Z,96524.81
2022-08-20T10:45:56.558Z,96523.72
2022-08-20T10:48:24.414Z,96520.06
2022-08-20T10:50:51.670Z,96509.34
2022-08-20T10:53:19.489Z,96509.13
2022-08-20T10:55:47.378Z,96512.38
2022-08-20T10:58:14.756Z,96509.31
2022-08-20T11:00:42.348Z,96506.91
2022-08-20T11:03:09.428Z,96511.09
2022-08-20T11:05:36.481Z,96513.50
2022-08-20T11:08:05.544Z,96513.41
2022-08-20T11:10:34.747Z,96505.94
2022-08-20T11:13:04.262Z,96512.31
2022-08-20T11:15:37.749Z,96507.09
2022-08-20T11:18:05.528Z,96500.47
2022-08-20T11:20:33.095Z,96500.94
2022-08-20T11:23:00.578Z,96504.78
2022-08-20T11:25:28.440Z,96499.75
2022-08-20T11:27:57.117Z,96498.13
2022-08-20T11:30:30.232Z,96503.16
2022-08-20T11:32:59.112Z,96487.97
2022-08-20T11:35:48.835Z,96490.03
2022-08-20T11:38:16.069Z,96480.66
2022-08-20T11:40:43.314Z,96494.66
2022-08-20T11:43:15.629Z,96475.97
2022-08-20T11:45:45.812Z,96481.03
2022-08-20T11:48:13.475Z,96470.56
2022-08-20T11:50:40.511Z,96468.97
2022-08-20T11:53:08.202Z,96472.25
2022-08-20T11:55:36.710Z,96473.03
2022-08-20T11:58:07.213Z,96470.13
2022-08-20T12:00:36.964Z,96461.16
2022-08-20T12:03:09.055Z,96457.06
2022-08-20T12:05:39.874Z,96463.75
2022-08-20T12:08:08.662Z,96458.28
2022-08-20T12:10:36.787Z,96455.22
2022-08-20T12:13:04.695Z,96447.72
2022-08-20T12:15:34.011Z,96441.75
2022-08-20T12:18:03.702Z,96439.03
2022-08-20T12:20:30.946Z,96437.09
2022-08-20T12:22:59.237Z,96438.13
2022-08-20T12:25:27.183Z,96438.09
2022-08-20T12:27:54.340Z,96426.97
2022-08-20T12:30:24.400Z,96430.06
2022-08-20T12:32:51.723Z,96424.25
2022-08-20T12:35:20.202Z,96430.56
2022-08-20T12:37:48.220Z,96427.31
2022-08-20T12:40:22.699Z,96427.94
2022-08-20T12:43:04.480Z,96425.06
2022-08-20T12:45:33.589Z,96425.38
2022-08-20T12:48:07.425Z,96418.44
2022-08-20T12:50:36.340Z,96423.28
2022-08-20T12:53:04.335Z,96423.16
2022-08-20T12:55:32.413Z,96427.97
2022-08-20T12:58:02.216Z,96418.31
2022-08-20T13:00:36.182Z,96411.84
2022-08-20T13:03:05.872Z,96417.47
2022-08-20T13:05:34.787Z,96411.28
2022-08-20T13:08:03.303Z,96407.22
2022-08-20T13:10:33.293Z,96410.72
2022-08-20T13:13:04.251Z,96398.44
2022-08-20T13:15:32.986Z,96401.66
2022-08-20T13:18:02.725Z,96404.28
2022-08-20T13:20:34.762Z,96396.66
2022-08-20T13:23:04.567Z,96383.31
2022-08-20T13:25:32.278Z,96388.00
2022-08-20T13:28:01.446Z,96384.91
2022-08-20T13:30:28.628Z,96380.06
2022-08-20T13:32:55.966Z,96371.00
2022-08-20T13:35:23.724Z,96375.53
2022-08-20T13:37:51.284Z,96377.97
2022-08-20T13:40:18.818Z,96363.69
2022-08-20T13:42:46.210Z,96360.63
2022-08-20T13:45:16.355Z,96362.41
2022-08-20T13:47:46.634Z,96351.56
2022-08-20T13:50:20.510Z,96343.34
2022-08-20T13:52:48.472Z,96345.78
2022-08-20T13:55:19.136Z,96336.44
2022-08-20T13:57:47.892Z,96342.06
2022-08-20T14:00:30.858Z,96332.44
2022-08-20T14:03:02.968Z,96329.19
2022-08-20T14:05:30.922Z,96335.44
2022-08-20T14:08:14.122Z,96326.75
2022-08-20T14:10:42.918Z,96332.06
2022-08-20T14:13:15.119Z,96328.03
2022-08-20T14:15:42.421Z,96321.84
2022-08-20T14:18:09.590Z,96318.31
2022-08-20T14:20:38.682Z,96312.84
2022-08-20T14:23:06.685Z,96315.22
2022-08-20T14:25:33.968Z,96307.66
2022-08-20T14:28:20.022Z,96309.44
2022-08-20T14:30:52.842Z,96312.50
2022-08-20T14:33:21.413Z,96316.69
2022-08-20T14:35:48.422Z,96311.41
2022-08-20T14:38:15.335Z,96316.69
2022-08-20T14:40:42.619Z,96316.81
2022-08-20T14:43:09.642Z,96322.25
2022-08-20T14:45:36.504Z,96323.88
2022-08-20T14:48:07.752Z,96323.03
2022-08-20T14:50:36.261Z,96326.69
2022-08-20T14:53:03.879Z,96320.34
2022-08-20T14:55:40.454Z,96328.88
2022-08-20T14:58:12.339Z,96333.78
2022-08-20T15:00:40.099Z,96336.63
2022-08-20T15:03:07.875Z,96342.84
2022-08-20T15:05:39.547Z,96341.94
2022-08-20T15:08:07.675Z,96337.84
2022-08-20T15:10:35.064Z,96350.13
2022-08-20T15:13:02.868Z,96354.34
2022-08-20T15:15:30.342Z,96363.34
2022-08-20T15:18:00.543Z,96361.97
2022-08-20T15:20:31.365Z,96364.03
2022-08-20T15:22:59.451Z,96350.09
2022-08-20T15:25:37.005Z,96350.72
2022-08-20T15:28:06.420Z,96358.28
2022-08-20T15:30:33.728Z,96352.31
2022-08-20T15:33:01.236Z,96351.78
2022-08-20T15:35:29.174Z,96363.75
2022-08-20T15:37:58.083Z,96356.06
2022-08-20T15:40:28.838Z,96357.84
2022-08-20T15:42:58.215Z,96361.63
2022-08-20T15:45:25.972Z,96357.63
2022-08-20T15:48:00.269Z,96356.13
2022-08-20T15:50:48.432Z,96361.28
2022-08-20T15:53:41.345Z,96360.41
2022-08-20T15:56:22.430Z,96357.78
2022-08-20T15:58:55.115Z,96362.28
2022-08-20T16:01:54.140Z,96359.16
2022-08-20T16:04:41.554Z,96354.28
2022-08-20T16:07:17.575Z,96365.88
2022-08-20T16:10:23.769Z,96365.19
2022-08-20T16:12:54.712Z,96376.47
2022-08-20T16:15:28.603Z,96368.56
2022-08-20T16:18:09.265Z,96375.72
2022-08-20T16:20:42.960Z,96376.66
2022-08-20T16:23:21.895Z,96370.75
2022-08-20T16:26:23.104Z,96385.00
2022-08-20T16:29:11.510Z,96401.09
2022-08-20T16:31:56.576Z,96400.34
2022-08-20T16:34:40.731Z,96403.66
2022-08-20T16:37:35.541Z,96403.41
2022-08-20T16:40:29.524Z,96402.09
2022-08-20T16:42:59.392Z,96402.16
2022-08-20T16:45:50.890Z,96404.63
2022-08-20T16:48:19.294Z,96407.88
2022-08-20T16:50:59.313Z,96407.66
2022-08-20T16:53:27.831Z,96410.94
2022-08-20T16:55:59.782Z,96406.09
2022-08-20T16:58:27.196Z,96410.44
2022-08-20T17:01:13.932Z,96415.06
2022-08-20T17:03:50.569Z,96428.84
2022-08-20T17:06:28.937Z,96421.00
2022-08-20T17:08:56.563Z,96420.72
2022-08-20T17:11:29.464Z,96433.72
2022-08-20T17:14:16.481Z,96464.28
2022-08-20T17:16:48.333Z,96478.59
2022-08-20T17:19:31.100Z,96505.09
2022-08-20T17:22:19.289Z,96535.88
2022-08-20T17:24:46.426Z,96542.28
2022-08-20T17:27:27.721Z,96567.13
2022-08-20T17:30:03.714Z,96572.19
2022-08-20T17:32:31.103Z,96574.81
2022-08-20T17:34:59.557Z,96570.09
2022-08-20T17:37:33.777Z,96591.06
2022-08-20T17:40:15.197Z,96607.09
2022-08-20T17:42:50.230Z,96619.81
2022-08-20T17:45:27.819Z,96638.56
2022-08-20T17:47:58.771Z,96632.88
2022-08-20T17:50:35.600Z,96646.91
2022-08-20T17:53:05.646Z,96633.97
2022-08-20T17:55:37.184Z,96620.38
2022-08-20T17:58:10.884Z,96624.84
2022-08-20T18:00:38.331Z,96626.63
2022-08-20T18:03:11.837Z,96645.09
2022-08-20T18:05:39.871Z,96642.78
2022-08-20T18:08:42.578Z,96661.22
2022-08-20T18:11:25.056Z,96676.47
2022-08-20T18:14:10.258Z,96674.94
2022-08-20T18:17:16.077Z,96683.88
2022-08-20T18:19:56.585Z,96690.69
2022-08-20T18:22:31.088Z,96689.19
2022-08-20T18:25:11.481Z,96685.97
2022-08-20T18:27:46.981Z,96688.34
2022-08-20T18:30:21.524Z,96705.78
2022-08-20T18:32:51.571Z,96716.66
2022-08-20T18:35:33.942Z,96717.31
2022-08-20T18:38:29.540Z,96721.75
2022-08-20T18:41:13.215Z,96721.97
2022-08-20T18:43:42.049Z,96722.03
2022-08-20T18:46:22.445Z,96723.44
2022-08-20T18:48:57.637Z,96734.88
2022-08-20T18:51:35.878Z,96729.50
2022-08-20T18:54:03.202Z,96729.50
2022-08-20T18:56:37.573Z,96728.47
2022-08-20T18:59:20.100Z,96722.50
2022-08-20T19:01:49.635Z,96714.03
2022-08-20T19:04:28.963Z,96710.22
2022-08-20T19:07:02.062Z,96712.56
2022-08-20T19:10:04.159Z,96706.94
2022-08-20T19:12:31.313Z,96704.63
2022-08-20T19:15:16.949Z,96712.13
2022-08-20T19:18:11.515Z,96707.13
2022-08-20T19:20:42.206Z,96700.59
2022-08-20T19:23:15.116Z,96707.59
2022-08-20T19:26:05.541Z,96697.06
2022-08-20T19:28:44.355Z,96688.88
2022-08-20T19:31:27.464Z,96680.38
2022-08-20T19:34:20.439Z,96681.78
2022-08-20T19:37:27.675Z,96684.03
2022-08-20T19:39:49.252Z,96685.19
2022-08-20T19:42:32.195Z,96670.59
2022-08-20T19:45:04.303Z,96676.53
2022-08-20T19:47:38.369Z,96674.44
2022-08-20T19:50:25.611Z,96667.22
2022-08-20T19:53:07.816Z,96661.38
2022-08-20T19:55:37.894Z,96652.50
2022-08-20T19:58:26.398Z,96645.25
2022-08-20T20:00:55.731Z,96648.53
2022-08-20T20:03:30.575Z,96643.41
2022-08-20T20:06:16.050Z,96642.16
2022-08-20T20:09:01.316Z,96643.47
2022-08-20T20:11:42.899Z,96629.22
2022-08-20T20:14:13.540Z,96635.16
2022-08-20T20:16:42.538Z,96643.09
2022-08-20T20:19:28.671Z,96636.56
2022-08-20T20:22:20.245Z,96637.03
2022-08-20T20:25:13.801Z,96634.34
2022-08-20T20:27:45.792Z,96642.16
2022-08-20T20:30:14.427Z,96637.59
2022-08-20T20:32:49.717Z,96642.97
2022-08-20T20:35:29.592Z,96646.59
2022-08-20T20:38:05.357Z,96644.47
2022-08-20T20:40:44.162Z,96650.31
2022-08-20T20:43:23.329Z,96644.97
2022-08-20T20:46:00.836Z,96649.38
2022-08-20T20:48:33.883Z,96644.94
2022-08-20T20:51:13.807Z,96640.06
2022-08-20T20:53:53.005Z,96639.56
2022-08-20T20:56:30.525Z,96637.13
2022-08-20T20:59:00.328Z,96635.97
2022-08-20T21:01:49.203Z,96631.53
2022-08-20T21:04:22.895Z,96634.09
2022-08-20T21:06:52.560Z,96638.84
2022-08-20T21:09:20.905Z,96645.53
2022-08-20T21:11:49.330Z,96649.47
2022-08-20T21:14:17.564Z,96651.47
2022-08-20T21:16:45.377Z,96656.84
2022-08-20T21:19:13.766Z,96662.78
2022-08-20T21:21:42.232Z,96659.50
2022-08-20T21:24:10.631Z,96669.22
2022-08-20T21:26:38.274Z,96673.88
2022-08-20T21:29:09.462Z,96678.53
2022-08-20T21:31:43.783Z,96692.63
2022-08-20T21:34:13.538Z,96699.06
2022-08-20T21:36:41.569Z,96705.91
2022-08-20T21:39:08.936Z,96712.31
2022-08-20T21:41:37.769Z,96715.16
2022-08-20T21:44:11.003Z,96715.72
2022-08-20T21:46:39.462Z,96707.50
2022-08-20T21:49:06.904Z,96717.78
2022-08-20T21:51:35.642Z,96720.69
2022-08-20T21:54:03.400Z,96713.22
2022-08-20T21:56:33.890Z,96713.69
2022-08-20T21:59:02.347Z,96712.88
2022-08-20T22:01:30.069Z,96718.53
2022-08-20T22:03:57.198Z,96737.31
2022-08-20T22:06:25.861Z,96734.09
2022-08-20T22:08:53.009Z,96744.81
2022-08-20T22:11:20.984Z,96745.47
2022-08-20T22:13:48.197Z,96749.63
2022-08-20T22:16:18.828Z,96747.38
2022-08-20T22:18:47.904Z,96747.09
2022-08-20T22:21:21.943Z,96746.41
2022-08-20T22:23:50.015Z,96745.00
2022-08-20T22:26:18.431Z,96746.78
2022-08-20T22:28:51.310Z,96743.69
2022-08-20T22:31:22.769Z,96753.84
2022-08-20T22:33:50.312Z,96753.91
2022-08-20T22:36:17.933Z,96755.56
2022-08-20T22:38:45.725Z,96747.72
2022-08-20T22:41:15.689Z,96751.84
2022-08-20T22:43:56.053Z,96767.91
2022-08-20T22:46:27.815Z,96768.34
2022-08-20T22:48:56.106Z,96785.88
2022-08-20T22:51:35.632Z,96773.44
2022-08-20T22:54:08.312Z,96782.13
2022-08-20T22:56:35.390Z,96777.81
2022-08-20T22:59:03.200Z,96782.16
2022-08-20T23:01:31.665Z,96786.66
2022-08-20T23:04:06.960Z,96782.44
2022-08-20T23:06:34.120Z,96784.38
2022-08-20T23:09:01.204Z,96781.72
2022-08-20T23:11:30.211Z,96782.00
2022-08-20T23:13:57.318Z,96777.28
2022-08-20T23:16:26.529Z,96777.91
2022-08-20T23:18:54.006Z,96773.81
2022-08-20T23:21:21.101Z,96767.78
2022-08-20T23:23:48.574Z,96759.44
2022-08-20T23:26:21.170Z,96759.00
2022-08-20T23:28:48.863Z,96760.03
2022-08-20T23:31:16.085Z,96761.91
2022-08-20T23:33:44.916Z,96758.69
2022-08-20T23:36:20.449Z,96759.16
2022-08-20T23:38:51.753Z,96742.69
2022-08-20T23:41:19.193Z,96732.13
2022-08-20T23:43:46.726Z,96730.28
2022-08-20T23:46:13.921Z,96711.81
2022-08-20T23:48:43.924Z,96705.22
2022-08-20T23:51:14.313Z,96697.84
2022-08-20T23:53:41.516Z,96696.59
2022-08-20T23:56:08.835Z,96686.38
2022-08-20T23:58:36.132Z,96670.16
